Datum - Zeit
Döttingen
TemperaturTaupunktFeuchteSolar Wind aus
Richtung
Windböenaus
Richtung
Luftdruck
(QFF)
RegenRegen
Stärke
22.04.2021 - 00.00Uhr10.7 °C5.7 °C71 %0.0 W/m²6.8 km/hSüd-SO12.2 km/hSüd-SO1016.8 hPa0.0 mm0.0 mm/h
22.04.2021 - 00.05Uhr10.7 °C5.7 °C71 %0.0 W/m²3.9 km/hSüd-SO8.3 km/hSüd-SO1016.8 hPa0.0 mm0.0 mm/h
22.04.2021 - 00.10Uhr10.4 °C5.6 °C72 %0.0 W/m²2.7 km/hSüd-SO8.3 km/hSüd-SO1016.9 hPa0.0 mm0.0 mm/h
22.04.2021 - 00.15Uhr10.4 °C5.7 °C73 %0.0 W/m²2.1 km/hSüd-SO4.0 km/hSüd-SO1016.9 hPa0.0 mm0.0 mm/h
22.04.2021 - 00.20Uhr10.4 °C5.6 °C72 %0.0 W/m²2.1 km/hSüd-SO4.0 km/hSüd-SO1016.9 hPa0.0 mm0.0 mm/h
22.04.2021 - 00.25Uhr10.5 °C5.7 °C72 %0.0 W/m²1.3 km/hSüd-SO4.0 km/hSüd-SO1016.9 hPa0.0 mm0.0 mm/h
22.04.2021 - 00.30Uhr10.6 °C5.6 °C71 %0.0 W/m²0.0 km/hSüd-SO0.0 km/hNorden1017.0 hPa0.0 mm0.0 mm/h
22.04.2021 - 00.35Uhr10.6 °C5.6 °C71 %0.0 W/m²0.0 km/hSüd-SO0.0 km/hNorden1017.0 hPa0.0 mm0.0 mm/h
22.04.2021 - 00.40Uhr10.5 °C5.6 °C71 %0.0 W/m²0.0 km/hSüd-SO0.0 km/hNorden1017.0 hPa0.0 mm0.0 mm/h
22.04.2021 - 00.45Uhr10.2 °C5.5 °C72 %0.0 W/m²0.0 km/hSüd-SO0.0 km/hNorden1017.0 hPa0.0 mm0.0 mm/h
22.04.2021 - 00.50Uhr9.5 °C5.3 °C75 %0.0 W/m²0.0 km/hSüd-SO0.0 km/hNorden1017.0 hPa0.0 mm0.0 mm/h
22.04.2021 - 00.55Uhr9.2 °C5.2 °C76 %0.0 W/m²0.0 km/hSüd-SO0.0 km/hNorden1017.0 hPa0.0 mm0.0 mm/h
22.04.2021 - 01.00Uhr9.2 °C5.3 °C77 %0.0 W/m²0.0 km/hSüd-SO0.0 km/hNorden1017.0 hPa0.0 mm0.0 mm/h
22.04.2021 - 01.05Uhr9.1 °C5.2 °C77 %0.0 W/m²0.0 km/hSüd-SO0.0 km/hNorden1017.0 hPa0.0 mm0.0 mm/h
22.04.2021 - 01.10Uhr8.8 °C5.1 °C77 %0.0 W/m²0.0 km/hSüd-SO0.0 km/hNorden1017.0 hPa0.0 mm0.0 mm/h
22.04.2021 - 01.15Uhr8.7 °C5.3 °C79 %0.0 W/m²0.0 km/hSüd-SO0.0 km/hNorden1017.0 hPa0.0 mm0.0 mm/h
22.04.2021 - 01.20Uhr8.8 °C5.1 °C78 %0.0 W/m²0.0 km/hSüd-SO0.0 km/hNorden1017.0 hPa0.0 mm0.0 mm/h
22.04.2021 - 01.25Uhr8.5 °C4.9 °C78 %0.0 W/m²0.0 km/hSüd-SO0.0 km/hNorden1017.0 hPa0.0 mm0.0 mm/h
22.04.2021 - 01.30Uhr8.3 °C5.0 °C80 %0.0 W/m²0.0 km/hSüd-SO0.0 km/hNorden1017.1 hPa0.0 mm0.0 mm/h
22.04.2021 - 01.35Uhr8.2 °C5.0 °C80 %0.0 W/m²0.0 km/hSüd-SO0.0 km/hNorden1017.1 hPa0.0 mm0.0 mm/h
22.04.2021 - 01.40Uhr8.0 °C4.9 °C81 %0.0 W/m²0.0 km/hSüd-SO0.0 km/hNorden1017.1 hPa0.0 mm0.0 mm/h
22.04.2021 - 01.45Uhr7.6 °C4.5 °C81 %0.0 W/m²0.0 km/hSüd-SO0.0 km/hNorden1017.1 hPa0.0 mm0.0 mm/h
22.04.2021 - 01.50Uhr7.2 °C4.3 °C82 %0.0 W/m²5.0 km/hSüd-SO8.3 km/hSüd-SO1017.1 hPa0.0 mm0.0 mm/h
22.04.2021 - 01.55Uhr7.3 °C4.6 °C83 %0.0 W/m²7.7 km/hSüd-SO8.3 km/hSüd-SO1017.1 hPa0.0 mm0.0 mm/h
22.04.2021 - 02.00Uhr7.6 °C4.9 °C83 %0.0 W/m²3.9 km/hSüd-SO8.3 km/hSüd-SO1017.1 hPa0.0 mm0.0 mm/h
22.04.2021 - 02.05Uhr7.7 °C4.8 °C82 %0.0 W/m²0.0 km/hSüd-SO0.0 km/hNorden1017.2 hPa0.0 mm0.0 mm/h
22.04.2021 - 02.10Uhr7.5 °C4.7 °C82 %0.0 W/m²0.0 km/hSüd-SO0.0 km/hNorden1017.2 hPa0.0 mm0.0 mm/h
22.04.2021 - 02.15Uhr7.5 °C4.7 °C82 %0.0 W/m²0.0 km/hSüd-SO0.0 km/hNorden1017.2 hPa0.0 mm0.0 mm/h
22.04.2021 - 02.20Uhr7.4 °C4.5 °C82 %0.0 W/m²0.0 km/hSüd-SO0.0 km/hNorden1017.1 hPa0.0 mm0.0 mm/h
22.04.2021 - 02.25Uhr7.2 °C4.3 °C82 %0.0 W/m²0.0 km/hSüd-SO0.0 km/hNorden1017.1 hPa0.0 mm0.0 mm/h
22.04.2021 - 02.30Uhr7.1 °C4.4 °C83 %0.0 W/m²0.0 km/hSüd-SO0.0 km/hNorden1017.2 hPa0.0 mm0.0 mm/h
22.04.2021 - 02.35Uhr7.2 °C4.4 °C83 %0.0 W/m²0.0 km/hSüd-SO0.0 km/hNorden1017.2 hPa0.0 mm0.0 mm/h
22.04.2021 - 02.40Uhr6.9 °C4.2 °C83 %0.0 W/m²0.0 km/hSüd-SO0.0 km/hNorden1017.2 hPa0.0 mm0.0 mm/h
22.04.2021 - 02.45Uhr6.8 °C4.1 °C83 %0.0 W/m²0.0 km/hSüd-SO0.0 km/hNorden1017.2 hPa0.0 mm0.0 mm/h
22.04.2021 - 02.50Uhr6.7 °C4.2 °C84 %0.0 W/m²0.0 km/hSüd-SO0.0 km/hNorden1017.2 hPa0.0 mm0.0 mm/h
22.04.2021 - 02.55Uhr6.8 °C4.3 °C84 %0.0 W/m²0.0 km/hSüd-SO0.0 km/hNorden1017.3 hPa0.0 mm0.0 mm/h
22.04.2021 - 03.00Uhr6.5 °C4.0 °C84 %0.0 W/m²0.0 km/hSüd-SO0.0 km/hNorden1017.3 hPa0.0 mm0.0 mm/h
22.04.2021 - 03.05Uhr6.4 °C4.1 °C85 %0.0 W/m²0.0 km/hSüd-SO0.0 km/hNorden1017.4 hPa0.0 mm0.0 mm/h
22.04.2021 - 03.10Uhr6.4 °C4.0 °C84 %0.0 W/m²0.0 km/hSüd-SO0.0 km/hNorden1017.4 hPa0.0 mm0.0 mm/h
22.04.2021 - 03.15Uhr6.5 °C4.1 °C85 %0.0 W/m²0.0 km/hSüd-SO0.0 km/hNorden1017.4 hPa0.0 mm0.0 mm/h
22.04.2021 - 03.20Uhr6.4 °C3.9 °C84 %0.0 W/m²0.0 km/hSüd-SO0.0 km/hNorden1017.4 hPa0.0 mm0.0 mm/h
22.04.2021 - 03.25Uhr6.1 °C3.7 °C84 %0.0 W/m²0.0 km/hSüd-SO0.0 km/hNorden1017.4 hPa0.0 mm0.0 mm/h
22.04.2021 - 03.30Uhr6.1 °C3.9 °C86 %0.0 W/m²0.0 km/hSüd-SO0.0 km/hNorden1017.5 hPa0.0 mm0.0 mm/h
22.04.2021 - 03.35Uhr6.2 °C4.0 °C86 %0.0 W/m²0.0 km/hSüd-SO0.0 km/hNorden1017.5 hPa0.0 mm0.0 mm/h
22.04.2021 - 03.40Uhr6.3 °C4.1 °C86 %0.0 W/m²0.0 km/hSüd-SO0.0 km/hNorden1017.5 hPa0.0 mm0.0 mm/h
22.04.2021 - 03.45Uhr6.2 °C4.0 °C86 %0.0 W/m²0.0 km/hSüd-SO0.0 km/hNorden1017.5 hPa0.0 mm0.0 mm/h
22.04.2021 - 03.50Uhr6.2 °C4.0 °C86 %0.0 W/m²0.0 km/hSüd-SO0.0 km/hNorden1017.5 hPa0.0 mm0.0 mm/h
22.04.2021 - 03.55Uhr5.9 °C3.7 °C86 %0.0 W/m²0.0 km/hSüd-SO0.0 km/hNorden1017.5 hPa0.0 mm0.0 mm/h
22.04.2021 - 04.00Uhr5.9 °C3.8 °C86 %0.0 W/m²0.0 km/hSüd-SO0.0 km/hNorden1017.6 hPa0.0 mm0.0 mm/h
22.04.2021 - 04.05Uhr5.7 °C3.6 °C86 %0.0 W/m²0.0 km/hSüd-SO0.0 km/hNorden1017.6 hPa0.0 mm0.0 mm/h
22.04.2021 - 04.10Uhr5.7 °C3.6 °C87 %0.0 W/m²0.0 km/hSüd-SO0.0 km/hNorden1017.6 hPa0.0 mm0.0 mm/h
22.04.2021 - 04.15Uhr5.7 °C3.7 °C87 %0.0 W/m²0.0 km/hSüd-SO0.0 km/hNorden1017.6 hPa0.0 mm0.0 mm/h
22.04.2021 - 04.20Uhr5.6 °C3.6 °C87 %0.0 W/m²0.0 km/hSüd-SO0.0 km/hNorden1017.6 hPa0.0 mm0.0 mm/h
22.04.2021 - 04.25Uhr5.6 °C3.6 °C87 %0.0 W/m²0.0 km/hSüd-SO0.0 km/hNorden1017.7 hPa0.0 mm0.0 mm/h
22.04.2021 - 04.30Uhr5.7 °C3.6 °C87 %0.0 W/m²0.0 km/hSüd-SO0.0 km/hNorden1017.6 hPa0.0 mm0.0 mm/h
22.04.2021 - 04.35Uhr5.5 °C3.5 °C87 %0.0 W/m²0.0 km/hSüd-SO0.0 km/hNorden1017.6 hPa0.0 mm0.0 mm/h
22.04.2021 - 04.40Uhr5.0 °C3.0 °C87 %0.0 W/m²2.0 km/hSüd-SO4.0 km/hSüd-SO1017.7 hPa0.0 mm0.0 mm/h
22.04.2021 - 04.45Uhr4.7 °C2.9 °C88 %0.0 W/m²0.0 km/hSüd-SO0.0 km/hNorden1017.7 hPa0.0 mm0.0 mm/h
22.04.2021 - 04.50Uhr5.1 °C3.3 °C88 %0.0 W/m²0.0 km/hSüd-SO0.0 km/hNorden1017.7 hPa0.0 mm0.0 mm/h
22.04.2021 - 04.55Uhr5.3 °C3.5 °C88 %0.0 W/m²0.0 km/hSüd-SO0.0 km/hNorden1017.8 hPa0.0 mm0.0 mm/h
22.04.2021 - 05.00Uhr5.3 °C3.5 °C88 %0.0 W/m²0.0 km/hSüd-SO0.0 km/hNorden1017.8 hPa0.0 mm0.0 mm/h
22.04.2021 - 05.05Uhr5.4 °C3.8 °C90 %0.0 W/m²0.4 km/hSüd-SO1.8 km/hSüd-SO1017.8 hPa0.0 mm0.0 mm/h
22.04.2021 - 05.10Uhr5.4 °C3.8 °C90 %0.0 W/m²0.0 km/hSüd-SO0.0 km/hNorden1017.7 hPa0.0 mm0.0 mm/h
22.04.2021 - 05.15Uhr5.3 °C3.4 °C87 %0.0 W/m²0.0 km/hSüd-SO0.0 km/hNorden1017.7 hPa0.0 mm0.0 mm/h
22.04.2021 - 05.20Uhr5.2 °C3.2 °C87 %0.0 W/m²0.0 km/hSüd-SO0.0 km/hNorden1017.8 hPa0.0 mm0.0 mm/h
22.04.2021 - 05.25Uhr5.1 °C3.1 °C87 %0.0 W/m²0.0 km/hSüd-SO0.0 km/hNorden1017.8 hPa0.0 mm0.0 mm/h
22.04.2021 - 05.30Uhr5.0 °C3.0 °C87 %0.0 W/m²0.0 km/hSüd-SO0.0 km/hNorden1017.8 hPa0.0 mm0.0 mm/h
22.04.2021 - 05.35Uhr4.5 °C2.5 °C87 %0.0 W/m²0.0 km/hSüd-SO0.0 km/hNorden1017.8 hPa0.0 mm0.0 mm/h
22.04.2021 - 05.40Uhr4.4 °C2.6 °C88 %0.0 W/m²0.0 km/hSüd-SO0.0 km/hNorden1017.9 hPa0.0 mm0.0 mm/h
22.04.2021 - 05.45Uhr4.7 °C2.9 °C88 %0.0 W/m²0.0 km/hSüd-SO0.0 km/hNorden1017.9 hPa0.0 mm0.0 mm/h
22.04.2021 - 05.50Uhr4.7 °C2.9 °C88 %0.0 W/m²0.0 km/hSüd-SO0.0 km/hNorden1018.0 hPa0.0 mm0.0 mm/h
22.04.2021 - 05.55Uhr4.6 °C2.8 °C88 %0.0 W/m²0.0 km/hSüd-SO0.0 km/hNorden1018.1 hPa0.0 mm0.0 mm/h
22.04.2021 - 06.00Uhr4.5 °C2.7 °C88 %0.0 W/m²0.0 km/hSüd-SO0.0 km/hNorden1018.2 hPa0.0 mm0.0 mm/h
22.04.2021 - 06.05Uhr4.7 °C2.9 °C88 %0.0 W/m²0.0 km/hSüd-SO0.0 km/hNorden1018.1 hPa0.0 mm0.0 mm/h
22.04.2021 - 06.10Uhr4.7 °C2.9 °C88 %0.0 W/m²0.0 km/hSüd-SO0.0 km/hNorden1018.2 hPa0.0 mm0.0 mm/h
22.04.2021 - 06.15Uhr4.5 °C2.7 °C88 %0.0 W/m²0.0 km/hSüd-SO0.0 km/hNorden1018.2 hPa0.0 mm0.0 mm/h
22.04.2021 - 06.20Uhr4.5 °C2.6 °C88 %0.0 W/m²0.0 km/hSüd-SO0.0 km/hNorden1018.3 hPa0.0 mm0.0 mm/h
22.04.2021 - 06.25Uhr4.3 °C2.5 °C88 %0.0 W/m²2.4 km/hSüd-SO8.3 km/hSüd-SO1018.3 hPa0.0 mm0.0 mm/h
22.04.2021 - 06.30Uhr3.9 °C2.1 °C88 %7.0 W/m²5.7 km/hSüd-SO8.3 km/hSüd-SO1018.3 hPa0.0 mm0.0 mm/h
22.04.2021 - 06.35Uhr4.1 °C2.3 °C88 %9.0 W/m²5.9 km/hSüd-SO8.3 km/hSüd-SO1018.4 hPa0.0 mm0.0 mm/h
22.04.2021 - 06.40Uhr4.2 °C2.4 °C88 %12.0 W/m²3.7 km/hSüd-SO8.3 km/hSüd-SO1018.3 hPa0.0 mm0.0 mm/h
22.04.2021 - 06.45Uhr4.4 °C2.6 °C88 %14.0 W/m²1.9 km/hSüd-SO4.0 km/hSüd-SO1018.4 hPa0.0 mm0.0 mm/h
22.04.2021 - 06.50Uhr4.5 °C2.7 °C88 %16.0 W/m²0.2 km/hSüd-SO1.8 km/hSüd-SO1018.6 hPa0.0 mm0.0 mm/h
22.04.2021 - 06.55Uhr4.6 °C2.8 °C88 %19.0 W/m²2.5 km/hSüd-SO8.3 km/hSüd-SO1018.7 hPa0.0 mm0.0 mm/h
22.04.2021 - 07.00Uhr4.8 °C3.0 °C88 %26.0 W/m²0.8 km/hSüd-SO4.0 km/hSüd-SO1018.8 hPa0.0 mm0.0 mm/h
22.04.2021 - 07.05Uhr4.8 °C3.0 °C88 %32.0 W/m²0.0 km/hSüd-SO0.0 km/hNorden1018.8 hPa0.0 mm0.0 mm/h
22.04.2021 - 07.10Uhr4.8 °C3.0 °C88 %37.0 W/m²0.0 km/hSüd-SO0.0 km/hNorden1018.8 hPa0.0 mm0.0 mm/h
22.04.2021 - 07.15Uhr4.7 °C2.9 °C88 %44.0 W/m²0.0 km/hSüd-SO0.0 km/hNorden1018.9 hPa0.0 mm0.0 mm/h
22.04.2021 - 07.20Uhr4.8 °C3.0 °C88 %47.0 W/m²0.8 km/hSüd-SO4.0 km/hSüd-SO1018.9 hPa0.0 mm0.0 mm/h
22.04.2021 - 07.25Uhr4.8 °C3.0 °C88 %47.0 W/m²2.5 km/hSüd-SO8.3 km/hSüd-SO1018.9 hPa0.0 mm0.0 mm/h
22.04.2021 - 07.30Uhr4.8 °C3.0 °C88 %47.0 W/m²0.0 km/hSüd-SO0.0 km/hNorden1018.9 hPa0.0 mm0.0 mm/h
22.04.2021 - 07.35Uhr4.8 °C3.0 °C88 %49.0 W/m²0.0 km/hSüd-SO0.0 km/hNorden1018.9 hPa0.0 mm0.0 mm/h
22.04.2021 - 07.40Uhr5.0 °C3.1 °C88 %53.0 W/m²0.0 km/hSüd-SO0.0 km/hNorden1018.9 hPa0.0 mm0.0 mm/h
22.04.2021 - 07.45Uhr5.2 °C3.4 °C88 %56.0 W/m²0.0 km/hSüd-SO0.0 km/hNorden1018.9 hPa0.0 mm0.0 mm/h
22.04.2021 - 07.50Uhr5.3 °C3.5 °C88 %132.0 W/m²0.0 km/hSüd-SO0.0 km/hNorden1019.0 hPa0.0 mm0.0 mm/h
22.04.2021 - 07.55Uhr5.5 °C3.6 °C88 %137.0 W/m²0.0 km/hSüd-SO0.0 km/hNorden1019.0 hPa0.0 mm0.0 mm/h
22.04.2021 - 08.00Uhr5.9 °C4.1 °C88 %156.0 W/m²0.0 km/hSüd-SO0.0 km/hNorden1019.0 hPa0.0 mm0.0 mm/h
22.04.2021 - 08.05Uhr6.6 °C4.7 °C88 %162.0 W/m²0.0 km/hSüd-SO0.0 km/hNorden1019.0 hPa0.0 mm0.0 mm/h
22.04.2021 - 08.10Uhr7.0 °C5.0 °C87 %186.0 W/m²0.0 km/hSüd-SO0.0 km/hNorden1019.1 hPa0.0 mm0.0 mm/h
22.04.2021 - 08.15Uhr7.3 °C5.1 °C86 %188.0 W/m²0.5 km/hSüd-SO1.8 km/hSüd-SO1019.2 hPa0.0 mm0.0 mm/h
22.04.2021 - 08.20Uhr6.9 °C4.6 °C85 %134.0 W/m²0.0 km/hSüden0.0 km/hNorden1019.2 hPa0.0 mm0.0 mm/h
22.04.2021 - 08.25Uhr6.8 °C4.6 °C86 %151.0 W/m²0.0 km/hSüden0.0 km/hNorden1019.2 hPa0.0 mm0.0 mm/h
22.04.2021 - 08.30Uhr6.8 °C4.6 °C86 %153.0 W/m²0.0 km/hSüden0.0 km/hNorden1019.1 hPa0.0 mm0.0 mm/h
22.04.2021 - 08.35Uhr6.8 °C4.6 °C86 %146.0 W/m²0.0 km/hSüden0.0 km/hNorden1019.1 hPa0.0 mm0.0 mm/h
22.04.2021 - 08.40Uhr6.9 °C4.7 °C86 %156.0 W/m²0.0 km/hSüden0.0 km/hNorden1019.1 hPa0.0 mm0.0 mm/h
22.04.2021 - 08.45Uhr7.0 °C4.7 °C85 %156.0 W/m²0.0 km/hSüden0.0 km/hNorden1019.2 hPa0.0 mm0.0 mm/h
22.04.2021 - 08.50Uhr7.2 °C4.9 °C86 %156.0 W/m²0.0 km/hSüden0.0 km/hNorden1019.2 hPa0.0 mm0.0 mm/h
22.04.2021 - 08.55Uhr7.4 °C5.0 °C85 %162.0 W/m²0.0 km/hSüd-SW0.0 km/hNorden1019.2 hPa0.0 mm0.0 mm/h
22.04.2021 - 09.00Uhr7.6 °C5.1 °C85 %174.0 W/m²0.0 km/hSüdosten0.0 km/hNorden1019.3 hPa0.0 mm0.0 mm/h
22.04.2021 - 09.05Uhr7.6 °C5.1 °C84 %179.0 W/m²0.0 km/hSüdosten0.0 km/hNorden1019.3 hPa0.0 mm0.0 mm/h
22.04.2021 - 09.10Uhr7.9 °C5.4 °C84 %251.0 W/m²0.9 km/hSüdosten4.0 km/hSüdosten1019.4 hPa0.0 mm0.0 mm/h
22.04.2021 - 09.15Uhr8.1 °C5.4 °C83 %255.0 W/m²1.4 km/hSüdosten4.0 km/hSüdosten1019.4 hPa0.0 mm0.0 mm/h
22.04.2021 - 09.20Uhr8.3 °C5.6 °C83 %281.0 W/m²2.6 km/hSüdosten8.3 km/hSüdosten1019.5 hPa0.0 mm0.0 mm/h
22.04.2021 - 09.25Uhr8.2 °C5.4 °C82 %278.0 W/m²1.8 km/hSüdosten4.0 km/hSüdosten1019.5 hPa0.0 mm0.0 mm/h
22.04.2021 - 09.30Uhr8.3 °C5.5 °C82 %257.0 W/m²1.7 km/hSüdosten4.0 km/hSüdosten1019.5 hPa0.0 mm0.0 mm/h
22.04.2021 - 09.35Uhr8.4 °C5.6 °C82 %320.0 W/m²1.4 km/hSüdosten4.0 km/hSüdosten1019.6 hPa0.0 mm0.0 mm/h
22.04.2021 - 09.40Uhr8.8 °C5.8 °C82 %251.0 W/m²0.4 km/hSüdosten1.8 km/hSüdosten1019.6 hPa0.0 mm0.0 mm/h
22.04.2021 - 09.45Uhr8.7 °C5.6 °C81 %218.0 W/m²0.3 km/hSüdosten1.8 km/hSüdosten1019.6 hPa0.0 mm0.0 mm/h
22.04.2021 - 09.50Uhr8.9 °C6.1 °C82 %269.0 W/m²0.0 km/hSüdosten0.0 km/hNorden1019.7 hPa0.0 mm0.0 mm/h
22.04.2021 - 09.55Uhr9.2 °C6.1 °C81 %292.0 W/m²0.0 km/hSüdosten0.0 km/hNorden1019.7 hPa0.0 mm0.0 mm/h
22.04.2021 - 10.00Uhr9.3 °C6.1 °C80 %378.0 W/m²0.0 km/hSüdosten0.0 km/hNorden1019.7 hPa0.0 mm0.0 mm/h
22.04.2021 - 10.05Uhr9.6 °C6.7 °C82 %476.0 W/m²0.0 km/hSüdosten0.0 km/hNorden1019.7 hPa0.0 mm0.0 mm/h
22.04.2021 - 10.10Uhr10.3 °C7.1 °C81 %448.0 W/m²0.0 km/hSüdosten0.0 km/hNorden1019.7 hPa0.0 mm0.0 mm/h
22.04.2021 - 10.15Uhr10.6 °C7.0 °C79 %448.0 W/m²0.0 km/hSüdosten0.0 km/hNorden1019.8 hPa0.0 mm0.0 mm/h
22.04.2021 - 10.20Uhr11.0 °C7.4 °C78 %346.0 W/m²0.0 km/hSüdosten0.0 km/hNorden1019.8 hPa0.0 mm0.0 mm/h
22.04.2021 - 10.25Uhr10.9 °C6.8 °C76 %357.0 W/m²0.9 km/hSüdosten8.3 km/hSüdosten1019.8 hPa0.0 mm0.0 mm/h
22.04.2021 - 10.30Uhr11.2 °C7.0 °C75 %431.0 W/m²1.3 km/hSüdosten4.0 km/hSüdosten1019.8 hPa0.0 mm0.0 mm/h
22.04.2021 - 10.35Uhr11.6 °C7.2 °C74 %517.0 W/m²1.9 km/hSüdosten4.0 km/hSüdosten1019.8 hPa0.0 mm0.0 mm/h
22.04.2021 - 10.40Uhr11.6 °C7.0 °C74 %668.0 W/m²2.2 km/hSüdosten8.3 km/hSüdosten1019.8 hPa0.0 mm0.0 mm/h
22.04.2021 - 10.45Uhr12.2 °C7.5 °C73 %696.0 W/m²0.3 km/hSüdosten1.8 km/hSüdosten1019.8 hPa0.0 mm0.0 mm/h
22.04.2021 - 10.50Uhr12.9 °C7.8 °C71 %733.0 W/m²2.9 km/hSüdosten8.3 km/hSüdosten1019.8 hPa0.0 mm0.0 mm/h
22.04.2021 - 10.55Uhr13.2 °C7.5 °C68 %784.0 W/m²4.3 km/hSüdosten8.3 km/hSüdosten1019.8 hPa0.0 mm0.0 mm/h
22.04.2021 - 11.00Uhr13.2 °C7.1 °C66 %828.0 W/m²4.4 km/hWesten8.3 km/hWesten1019.8 hPa0.0 mm0.0 mm/h
22.04.2021 - 11.05Uhr13.6 °C7.5 °C66 %703.0 W/m²4.7 km/hWesten8.3 km/hWesten1019.8 hPa0.0 mm0.0 mm/h
22.04.2021 - 11.10Uhr13.6 °C7.0 °C65 %793.0 W/m²4.3 km/hWesten8.3 km/hWesten1019.8 hPa0.0 mm0.0 mm/h
22.04.2021 - 11.15Uhr13.5 °C7.3 °C66 %647.0 W/m²4.1 km/hWesten8.3 km/hWesten1019.8 hPa0.0 mm0.0 mm/h
22.04.2021 - 11.20Uhr14.0 °C7.6 °C65 %731.0 W/m²4.8 km/hWesten8.3 km/hWesten1019.8 hPa0.0 mm0.0 mm/h
22.04.2021 - 11.25Uhr14.2 °C7.3 °C63 %624.0 W/m²6.1 km/hWest-NW8.3 km/hWest-NW1019.7 hPa0.0 mm0.0 mm/h
22.04.2021 - 11.30Uhr14.3 °C7.3 °C63 %624.0 W/m²4.2 km/hWest-NW8.3 km/hWest-NW1019.7 hPa0.0 mm0.0 mm/h
22.04.2021 - 11.35Uhr14.1 °C7.2 °C63 %515.0 W/m²4.5 km/hWest-NW8.3 km/hWest-NW1019.7 hPa0.0 mm0.0 mm/h
22.04.2021 - 11.40Uhr14.3 °C7.4 °C63 %626.0 W/m²4.8 km/hNordwesten8.3 km/hNordwesten1019.7 hPa0.0 mm0.0 mm/h
22.04.2021 - 11.45Uhr14.7 °C8.0 °C64 %693.0 W/m²4.7 km/hNordwesten8.3 km/hNordwesten1019.6 hPa0.0 mm0.0 mm/h
22.04.2021 - 11.50Uhr15.4 °C8.1 °C62 %844.0 W/m²5.1 km/hNordwesten8.3 km/hNordwesten1019.6 hPa0.0 mm0.0 mm/h
22.04.2021 - 11.55Uhr15.7 °C8.3 °C62 %833.0 W/m²4.7 km/hNordwesten8.3 km/hNordwesten1019.5 hPa0.0 mm0.0 mm/h
22.04.2021 - 12.00Uhr15.8 °C7.9 °C60 %691.0 W/m²4.9 km/hNordwesten8.3 km/hNordwesten1019.5 hPa0.0 mm0.0 mm/h
22.04.2021 - 12.05Uhr15.5 °C7.8 °C60 %436.0 W/m²5.5 km/hNordwesten8.3 km/hNordwesten1019.5 hPa0.0 mm0.0 mm/h
22.04.2021 - 12.10Uhr15.2 °C7.8 °C61 %364.0 W/m²10.9 km/hNord-NW18.0 km/hNord-NW1019.5 hPa0.0 mm0.0 mm/h
22.04.2021 - 12.15Uhr14.7 °C7.8 °C63 %283.0 W/m²8.5 km/hNord-NW18.0 km/hNord-NW1019.5 hPa0.0 mm0.0 mm/h
22.04.2021 - 12.20Uhr15.0 °C8.2 °C64 %916.0 W/m²6.6 km/hNord-NW14.0 km/hNord-NW1019.5 hPa0.0 mm0.0 mm/h
22.04.2021 - 12.25Uhr15.2 °C7.9 °C62 %380.0 W/m²4.7 km/hNord-NW8.3 km/hNord-NW1019.5 hPa0.0 mm0.0 mm/h
22.04.2021 - 12.30Uhr15.6 °C8.5 °C63 %846.0 W/m²4.1 km/hNord-NW8.3 km/hNord-NW1019.4 hPa0.0 mm0.0 mm/h
22.04.2021 - 12.35Uhr16.2 °C8.6 °C61 %617.0 W/m²8.4 km/hNord-NW12.2 km/hNord-NW1019.6 hPa0.0 mm0.0 mm/h
22.04.2021 - 12.40Uhr16.6 °C8.8 °C60 %925.0 W/m²5.5 km/hNord-NW10.1 km/hWest-SW1019.5 hPa0.0 mm0.0 mm/h
22.04.2021 - 12.45Uhr16.9 °C8.7 °C59 %954.0 W/m²5.1 km/hNord-NW10.1 km/hSüdwesten1019.4 hPa0.0 mm0.0 mm/h
22.04.2021 - 12.50Uhr17.1 °C8.5 °C57 %956.0 W/m²3.3 km/hNord-NW8.3 km/hNord-NW1019.4 hPa0.0 mm0.0 mm/h
22.04.2021 - 12.55Uhr17.4 °C8.6 °C56 %930.0 W/m²5.6 km/hNordwesten8.3 km/hNordwesten1019.4 hPa0.0 mm0.0 mm/h
22.04.2021 - 13.00Uhr17.4 °C8.0 °C54 %939.0 W/m²6.8 km/hWest-NW8.3 km/hWest-SW1019.4 hPa0.0 mm0.0 mm/h
22.04.2021 - 13.05Uhr17.2 °C7.9 °C54 %689.0 W/m²3.3 km/hWest-NW8.3 km/hWest-NW1019.3 hPa0.0 mm0.0 mm/h
22.04.2021 - 13.10Uhr17.1 °C8.0 °C55 %446.0 W/m²7.2 km/hWest-NW12.2 km/hWest-NW1019.3 hPa0.0 mm0.0 mm/h
22.04.2021 - 13.15Uhr16.6 °C7.5 °C55 %371.0 W/m²8.8 km/hNordwesten14.0 km/hWest-NW1019.3 hPa0.0 mm0.0 mm/h
22.04.2021 - 13.20Uhr16.4 °C8.1 °C58 %360.0 W/m²10.5 km/hNord-NW16.2 km/hNordwesten1019.3 hPa0.0 mm0.0 mm/h
22.04.2021 - 13.25Uhr16.1 °C7.6 °C57 %258.0 W/m²15.4 km/hNordwesten32.4 km/hNord-NW1019.4 hPa0.0 mm0.0 mm/h
22.04.2021 - 13.30Uhr15.3 °C6.8 °C57 %220.0 W/m²22.4 km/hNord-NW34.2 km/hNord-NW1019.4 hPa0.0 mm0.0 mm/h
22.04.2021 - 13.35Uhr14.6 °C6.6 °C59 %162.0 W/m²18.0 km/hNord-NW28.4 km/hNord-NW1019.5 hPa0.0 mm0.0 mm/h
22.04.2021 - 13.40Uhr14.2 °C6.7 °C60 %128.0 W/m²20.3 km/hNord-NW32.4 km/hNord-NW1019.6 hPa0.0 mm0.0 mm/h
22.04.2021 - 13.45Uhr13.8 °C6.9 °C63 %118.0 W/m²18.7 km/hNord-NW26.3 km/hNord-NW1019.6 hPa0.0 mm0.0 mm/h
22.04.2021 - 13.50Uhr13.2 °C7.4 °C68 %113.0 W/m²17.6 km/hNord-NW24.5 km/hNordwesten1019.7 hPa0.0 mm0.0 mm/h
22.04.2021 - 13.55Uhr12.7 °C7.8 °C72 %102.0 W/m²13.6 km/hNord-NW28.4 km/hNorden1019.9 hPa0.0 mm0.0 mm/h
22.04.2021 - 14.00Uhr12.1 °C7.6 °C74 %125.0 W/m²13.9 km/hNord-NW24.5 km/hNord-NW1019.9 hPa0.2 mm0.0 mm/h
22.04.2021 - 14.05Uhr11.6 °C7.8 °C77 %155.0 W/m²1.7 km/hNord-NO5.8 km/hNord-NO1019.9 hPa0.2 mm4.4 mm/h
22.04.2021 - 14.10Uhr11.8 °C8.5 °C80 %220.0 W/m²7.7 km/hSüd-SO14.0 km/hSüd-SO1019.9 hPa0.0 mm3.6 mm/h
22.04.2021 - 14.15Uhr12.2 °C8.3 °C77 %267.0 W/m²1.4 km/hSüd-SO4.0 km/hSüd-SO1019.9 hPa0.0 mm1.4 mm/h
22.04.2021 - 14.20Uhr12.8 °C8.4 °C75 %327.0 W/m²0.0 km/hSüd-SO0.0 km/hNorden1019.8 hPa0.0 mm0.8 mm/h
22.04.2021 - 14.25Uhr13.3 °C8.8 °C74 %378.0 W/m²0.0 km/hSüd-SO0.0 km/hNorden1019.8 hPa0.0 mm0.0 mm/h
22.04.2021 - 14.30Uhr13.6 °C9.0 °C74 %406.0 W/m²0.0 km/hSüd-SO0.0 km/hNorden1019.8 hPa0.0 mm0.0 mm/h
22.04.2021 - 14.35Uhr14.0 °C9.1 °C72 %315.0 W/m²0.2 km/hSüd-SO1.8 km/hSüdosten1019.8 hPa0.0 mm0.0 mm/h
22.04.2021 - 14.40Uhr14.1 °C9.8 °C76 %281.0 W/m²2.9 km/hSüdosten8.3 km/hOst-NO1019.8 hPa0.0 mm0.0 mm/h
22.04.2021 - 14.45Uhr13.7 °C9.0 °C73 %269.0 W/m²6.1 km/hOst-NO12.2 km/hNord-NW1019.7 hPa0.0 mm0.0 mm/h
22.04.2021 - 14.50Uhr13.5 °C9.0 °C74 %250.0 W/m²9.8 km/hNord-NW14.0 km/hNord-NW1019.7 hPa0.0 mm0.0 mm/h
22.04.2021 - 14.55Uhr13.6 °C9.4 °C76 %271.0 W/m²2.7 km/hNord-NO8.3 km/hNord-NO1019.8 hPa0.0 mm0.0 mm/h
22.04.2021 - 15.00Uhr14.0 °C9.6 °C75 %292.0 W/m²2.5 km/hNord-NO5.8 km/hNordosten1019.8 hPa0.0 mm0.0 mm/h
22.04.2021 - 15.05Uhr14.1 °C9.3 °C73 %320.0 W/m²2.8 km/hNordosten8.3 km/hNordosten1019.8 hPa0.0 mm0.0 mm/h
22.04.2021 - 15.10Uhr14.3 °C9.4 °C73 %350.0 W/m²4.0 km/hOst-NO14.0 km/hSüdosten1019.7 hPa0.0 mm0.0 mm/h
22.04.2021 - 15.15Uhr14.3 °C9.1 °C71 %357.0 W/m²4.9 km/hOst-SO8.3 km/hOsten1019.7 hPa0.0 mm0.0 mm/h
22.04.2021 - 15.20Uhr14.3 °C8.8 °C70 %369.0 W/m²3.4 km/hOst-SO8.3 km/hOst-SO1019.7 hPa0.0 mm0.0 mm/h
22.04.2021 - 15.25Uhr14.6 °C8.4 °C67 %431.0 W/m²3.9 km/hOst-SO8.3 km/hOst-SO1019.7 hPa0.0 mm0.0 mm/h
22.04.2021 - 15.30Uhr14.9 °C8.4 °C65 %758.0 W/m²2.6 km/hOst-SO8.3 km/hOst-SO1019.7 hPa0.0 mm0.0 mm/h
22.04.2021 - 15.35Uhr15.3 °C9.0 °C66 %420.0 W/m²2.0 km/hWest-NW5.8 km/hWest-NW1019.7 hPa0.0 mm0.0 mm/h
22.04.2021 - 15.40Uhr15.3 °C9.1 °C66 %360.0 W/m²3.6 km/hWest-NW8.3 km/hWest-NW1019.6 hPa0.0 mm0.0 mm/h
22.04.2021 - 15.45Uhr15.2 °C8.5 °C64 %336.0 W/m²4.1 km/hWest-NW5.8 km/hWest-NW1019.5 hPa0.0 mm0.0 mm/h
22.04.2021 - 15.50Uhr15.2 °C8.0 °C62 %295.0 W/m²7.6 km/hWest-NW12.2 km/hWest-NW1019.5 hPa0.0 mm0.0 mm/h
22.04.2021 - 15.55Uhr15.3 °C8.6 °C64 %346.0 W/m²4.0 km/hWest-NW8.3 km/hWest-NW1019.5 hPa0.0 mm0.0 mm/h
22.04.2021 - 16.00Uhr15.6 °C8.6 °C63 %538.0 W/m²3.6 km/hWest-NW8.3 km/hWest-NW1019.4 hPa0.0 mm0.0 mm/h
22.04.2021 - 16.05Uhr16.0 °C8.8 °C62 %601.0 W/m²3.5 km/hNordwesten8.3 km/hNordwesten1019.4 hPa0.0 mm0.0 mm/h
22.04.2021 - 16.10Uhr16.6 °C8.3 °C58 %638.0 W/m²8.8 km/hNordwesten16.2 km/hWesten1019.3 hPa0.0 mm0.0 mm/h
22.04.2021 - 16.15Uhr16.1 °C7.1 °C55 %446.0 W/m²13.8 km/hWest-NW18.0 km/hWesten1019.3 hPa0.0 mm0.0 mm/h
22.04.2021 - 16.20Uhr15.4 °C7.2 °C58 %165.0 W/m²7.9 km/hWest-NW16.2 km/hWesten1019.3 hPa0.0 mm0.0 mm/h
22.04.2021 - 16.25Uhr15.2 °C7.5 °C60 %174.0 W/m²6.2 km/hNordwesten12.2 km/hNord-NW1019.4 hPa0.0 mm0.0 mm/h
22.04.2021 - 16.30Uhr15.1 °C7.7 °C61 %176.0 W/m²7.8 km/hNord-NW14.0 km/hNord-NW1019.4 hPa0.0 mm0.0 mm/h
22.04.2021 - 16.35Uhr15.1 °C8.1 °C63 %213.0 W/m²8.9 km/hNord-NW18.0 km/hNord-NW1019.3 hPa0.0 mm0.0 mm/h
22.04.2021 - 16.40Uhr15.4 °C8.7 °C64 %555.0 W/m²7.7 km/hNord-NW10.1 km/hNorden1019.3 hPa0.0 mm0.0 mm/h
22.04.2021 - 16.45Uhr16.3 °C8.6 °C60 %584.0 W/m²7.9 km/hNord-NW12.2 km/hNordwesten1019.2 hPa0.0 mm0.0 mm/h
22.04.2021 - 16.50Uhr17.1 °C8.7 °C58 %573.0 W/m²8.1 km/hNord-NW12.2 km/hNorden1019.2 hPa0.0 mm0.0 mm/h
22.04.2021 - 16.55Uhr17.4 °C8.4 °C56 %545.0 W/m²7.2 km/hNord-NW12.2 km/hNorden1019.2 hPa0.0 mm0.0 mm/h
22.04.2021 - 17.00Uhr17.5 °C8.3 °C55 %536.0 W/m²9.3 km/hNord-NW16.2 km/hNord-NW1019.2 hPa0.0 mm0.0 mm/h
22.04.2021 - 17.05Uhr17.4 °C7.8 °C53 %445.0 W/m²6.6 km/hWest-NW12.2 km/hNord-NW1019.2 hPa0.0 mm0.0 mm/h
22.04.2021 - 17.10Uhr16.9 °C7.8 °C55 %325.0 W/m²5.7 km/hNordwesten12.2 km/hNordwesten1019.2 hPa0.0 mm0.0 mm/h
22.04.2021 - 17.15Uhr16.8 °C8.0 °C56 %494.0 W/m²3.1 km/hNord-NW5.8 km/hNord-NW1019.2 hPa0.0 mm0.0 mm/h
22.04.2021 - 17.20Uhr17.3 °C8.2 °C55 %492.0 W/m²4.7 km/hNord-NW8.3 km/hNord-NW1019.2 hPa0.0 mm0.0 mm/h
22.04.2021 - 17.25Uhr17.7 °C8.0 °C53 %475.0 W/m²4.9 km/hNord-NW10.1 km/hNord-NW1019.2 hPa0.0 mm0.0 mm/h
22.04.2021 - 17.30Uhr18.0 °C8.4 °C53 %468.0 W/m²5.0 km/hNord-NW12.2 km/hNord-NW1019.2 hPa0.0 mm0.0 mm/h
22.04.2021 - 17.35Uhr18.3 °C8.3 °C52 %459.0 W/m²7.6 km/hNord-NW14.0 km/hNord-NW1019.2 hPa0.0 mm0.0 mm/h
22.04.2021 - 17.40Uhr18.0 °C7.9 °C52 %464.0 W/m²5.9 km/hNord-NW8.3 km/hNordwesten1019.2 hPa0.0 mm0.0 mm/h
22.04.2021 - 17.45Uhr17.9 °C7.7 °C51 %462.0 W/m²5.2 km/hNordwesten8.3 km/hNordwesten1019.2 hPa0.0 mm0.0 mm/h
22.04.2021 - 17.50Uhr17.5 °C7.1 °C50 %446.0 W/m²6.3 km/hNordwesten12.2 km/hNordwesten1019.2 hPa0.0 mm0.0 mm/h
22.04.2021 - 17.55Uhr17.4 °C7.9 °C54 %406.0 W/m²4.6 km/hNordwesten12.2 km/hNord-NW1019.2 hPa0.0 mm0.0 mm/h
22.04.2021 - 18.00Uhr18.1 °C7.9 °C51 %380.0 W/m²6.2 km/hNord-NW12.2 km/hWest-NW1019.1 hPa0.0 mm0.0 mm/h
22.04.2021 - 18.05Uhr18.2 °C7.7 °C50 %357.0 W/m²8.1 km/hNord-NW12.2 km/hNord-NW1019.2 hPa0.0 mm0.0 mm/h
22.04.2021 - 18.10Uhr18.1 °C7.3 °C49 %343.0 W/m²9.1 km/hNord-NW18.0 km/hNorden1019.1 hPa0.0 mm0.0 mm/h
22.04.2021 - 18.15Uhr18.1 °C7.6 °C50 %325.0 W/m²13.6 km/hNord-NW26.3 km/hNorden1019.1 hPa0.0 mm0.0 mm/h
22.04.2021 - 18.20Uhr18.1 °C7.6 °C50 %313.0 W/m²9.8 km/hNord-NW18.0 km/hNordwesten1019.1 hPa0.0 mm0.0 mm/h
22.04.2021 - 18.25Uhr18.0 °C7.1 °C49 %257.0 W/m²5.9 km/hNorden8.3 km/hNorden1019.2 hPa0.0 mm0.0 mm/h
22.04.2021 - 18.30Uhr17.8 °C6.7 °C49 %260.0 W/m²2.9 km/hNorden8.3 km/hNord-NO1019.1 hPa0.0 mm0.0 mm/h
22.04.2021 - 18.35Uhr17.2 °C6.2 °C48 %253.0 W/m²2.0 km/hOst-NO5.8 km/hOst-NO1019.1 hPa0.0 mm0.0 mm/h
22.04.2021 - 18.40Uhr17.3 °C6.9 °C50 %227.0 W/m²0.9 km/hOst-NO4.0 km/hOst-NO1019.1 hPa0.0 mm0.0 mm/h
22.04.2021 - 18.45Uhr17.4 °C7.1 °C51 %220.0 W/m²3.6 km/hOst-NO8.3 km/hNord-NO1019.2 hPa0.0 mm0.0 mm/h
22.04.2021 - 18.50Uhr17.4 °C6.6 °C49 %202.0 W/m²3.8 km/hOst-NO12.2 km/hOst-NO1019.2 hPa0.0 mm0.0 mm/h
22.04.2021 - 18.55Uhr16.8 °C6.1 °C49 %130.0 W/m²4.5 km/hOst-NO12.2 km/hNordosten1019.2 hPa0.0 mm0.0 mm/h
22.04.2021 - 19.00Uhr16.7 °C6.6 °C51 %146.0 W/m²2.8 km/hNordosten12.2 km/hOst-SO1019.3 hPa0.0 mm0.0 mm/h
22.04.2021 - 19.05Uhr16.7 °C6.8 °C52 %134.0 W/m²7.5 km/hOsten16.2 km/hNord-NO1019.3 hPa0.0 mm0.0 mm/h
22.04.2021 - 19.10Uhr16.8 °C6.8 °C52 %134.0 W/m²4.1 km/hNord-NO8.3 km/hNorden1019.3 hPa0.0 mm0.0 mm/h
22.04.2021 - 19.15Uhr16.7 °C6.9 °C52 %113.0 W/m²5.5 km/hNord-NO14.0 km/hNorden1019.3 hPa0.0 mm0.0 mm/h
22.04.2021 - 19.20Uhr16.5 °C7.0 °C53 %95.0 W/m²2.6 km/hNord-NO8.3 km/hNord-NO1019.4 hPa0.0 mm0.0 mm/h
22.04.2021 - 19.25Uhr16.4 °C7.0 °C54 %88.0 W/m²3.2 km/hNord-NO8.3 km/hNord-NO1019.4 hPa0.0 mm0.0 mm/h
22.04.2021 - 19.30Uhr16.3 °C7.0 °C54 %77.0 W/m²4.5 km/hNord-NO14.0 km/hNord-NO1019.4 hPa0.0 mm0.0 mm/h
22.04.2021 - 19.35Uhr16.1 °C6.9 °C54 %62.0 W/m²1.1 km/hNord-NO4.0 km/hNord-NO1019.4 hPa0.0 mm0.0 mm/h
22.04.2021 - 19.40Uhr15.9 °C6.7 °C54 %53.0 W/m²2.6 km/hOst-NO8.3 km/hOst-NO1019.5 hPa0.0 mm0.0 mm/h
22.04.2021 - 19.45Uhr15.8 °C6.5 °C54 %39.0 W/m²2.2 km/hOst-NO5.8 km/hOst-NO1019.5 hPa0.0 mm0.0 mm/h
22.04.2021 - 19.50Uhr15.7 °C6.4 °C54 %18.0 W/m²1.4 km/hOst-NO5.8 km/hOst-NO1019.6 hPa0.0 mm0.0 mm/h
22.04.2021 - 19.55Uhr15.5 °C6.6 °C56 %12.0 W/m²0.0 km/hOst-NO0.0 km/hNorden1019.6 hPa0.0 mm0.0 mm/h
22.04.2021 - 20.00Uhr15.2 °C7.0 °C58 %11.0 W/m²3.5 km/hNordosten8.3 km/hNord-NO1019.7 hPa
22.04.2021 - 20.05Uhr15.2 °C6.8 °C57 %9.0 W/m²3.2 km/hNordosten8.3 km/hNordosten1019.8 hPa
22.04.2021 - 20.25Uhr15.1 °C6.9 °C58 %11.0 W/m²12.2 km/hNordosten12.2 km/hNordosten1020.2 hPa
22.04.2021 - 20.55Uhr14.4 °C6.2 °C58 %0.0 W/m²16.2 km/hNordosten16.2 km/hNordosten1020.6 hPa
22.04.2021 - 21.25Uhr13.6 °C5.0 °C56 %0.0 W/m²24.5 km/hNord-NO24.5 km/hNord-NO1021.3 hPa
22.04.2021 - 21.50Uhr13.0 °C2.4 °C49 %0.0 W/m²5.4 km/hOst-NO12.2 km/hNordosten1021.8 hPa
22.04.2021 - 21.55Uhr13.1 °C1.4 °C45 %0.0 W/m²9.3 km/hNordosten14.0 km/hNordosten1021.9 hPa0.0 mm0.0 mm/h
22.04.2021 - 22.00Uhr12.9 °C0.9 °C44 %0.0 W/m²3.5 km/hOst-NO12.2 km/hNorden1021.9 hPa0.0 mm0.0 mm/h
22.04.2021 - 22.05Uhr12.7 °C1.0 °C45 %0.0 W/m²4.9 km/hNordosten12.2 km/hNord-NO1022.0 hPa0.0 mm0.0 mm/h
22.04.2021 - 22.10Uhr12.5 °C0.8 °C45 %0.0 W/m²3.6 km/hNordosten8.3 km/hNordosten1022.1 hPa0.0 mm0.0 mm/h
22.04.2021 - 22.15Uhr12.4 °C0.7 °C45 %0.0 W/m²2.5 km/hOst-NO8.3 km/hOst-NO1022.0 hPa0.0 mm0.0 mm/h
22.04.2021 - 22.20Uhr12.2 °C0.4 °C44 %0.0 W/m²4.6 km/hNordosten10.1 km/hNordosten1022.1 hPa0.0 mm0.0 mm/h